Time;durP1;ratioP1;P1;durP2;ratioP2;P2;SDS_P1;SDS_P2;PMS_P1;PMS_P2;Temp;Humidity;BMP_temperature;BMP_pressure;BME280_temperature;BME280_humidity;BME280_pressure;Samples;Min_cycle;Max_cycle;Signal;HPM_P1;HPM_P2
2021/10/13 00:01:21;;;;;;;11.43;6.70;;;;;5.60;101894.00;;;;10347470;28;20207;-80
2021/10/13 00:06:23;;;;;;;9.37;6.87;;;;;5.70;101888.00;;;;10311135;28;20261;-80
2021/10/13 00:11:24;;;;;;;23.27;10.37;;;;;5.60;101899.00;;;;10299642;28;20212;-80
2021/10/13 00:16:25;;;;;;;11.57;6.63;;;;;5.70;101896.00;;;;10327133;28;20211;-80
2021/10/13 00:21:26;;;;;;;15.63;6.73;;;;;5.70;101890.00;;;;10315240;28;20207;-80
2021/10/13 00:26:28;;;;;;;20.00;6.87;;;;;5.70;101888.00;;;;10328772;28;20698;-81
2021/10/13 00:31:29;;;;;;;12.83;6.60;;;;;5.80;101897.00;;;;10323263;28;20215;-80
2021/10/13 00:36:30;;;;;;;13.17;6.20;;;;;5.90;101908.00;;;;10324376;28;20206;-80
2021/10/13 00:41:31;;;;;;;12.17;6.60;;;;;6.10;101910.00;;;;10287150;28;20785;-80
2021/10/13 00:46:33;;;;;;;15.20;7.50;;;;;6.20;101909.00;;;;10328500;28;20230;-80
2021/10/13 00:51:34;;;;;;;16.03;7.50;;;;;6.40;101903.00;;;;10318833;28;20254;-79
2021/10/13 00:56:35;;;;;;;15.40;7.93;;;;;6.50;101890.00;;;;10344057;28;20238;-80
2021/10/13 01:01:52;;;;;;;11.67;7.93;;;;;6.60;101885.00;;;;10312022;28;20208;-80
2021/10/13 01:07:09;;;;;;;18.37;8.73;;;;;6.80;101875.00;;;;10335753;28;20223;-80
2021/10/13 01:12:41;;;;;;;15.53;9.07;;;;;6.90;101880.00;;;;10313690;28;20207;-80
2021/10/13 01:18:04;;;;;;;16.03;7.50;;;;;6.90;101895.00;;;;10330024;28;20200;-80
2021/10/13 01:23:40;;;;;;;15.90;7.73;;;;;6.90;101893.00;;;;10346305;28;20255;-80
2021/10/13 01:28:44;;;;;;;12.17;7.37;;;;;6.80;101897.00;;;;10313820;28;20204;-80
2021/10/13 01:33:48;;;;;;;12.90;7.17;;;;;6.60;101892.00;;;;10294631;28;20294;-80
2021/10/13 01:38:52;;;;;;;22.40;7.63;;;;;6.50;101900.00;;;;10297068;28;20675;-80
2021/10/13 01:43:56;;;;;;;10.93;6.90;;;;;6.40;101909.00;;;;10329751;28;20199;-80
2021/10/13 01:49:01;;;;;;;11.67;6.70;;;;;6.30;101912.00;;;;10296387;28;20717;-80
2021/10/13 01:54:04;;;;;;;12.03;7.80;;;;;6.20;101915.00;;;;10335332;28;20219;-80
2021/10/13 01:59:16;;;;;;;14.57;7.97;;;;;6.20;101907.00;;;;10320099;28;20204;-80
2021/10/13 02:04:20;;;;;;;16.73;8.97;;;;;6.10;101910.00;;;;10351962;28;20223;-80
2021/10/13 02:09:25;;;;;;;18.17;9.00;;;;;6.10;101898.00;;;;10342396;28;20207;-80
2021/10/13 02:14:28;;;;;;;18.97;9.27;;;;;6.10;101908.00;;;;10351467;28;20206;-80
2021/10/13 02:19:30;;;;;;;16.67;10.27;;;;;6.10;101906.00;;;;10336078;28;20212;-80
2021/10/13 02:24:39;;;;;;;22.37;10.50;;;;;6.10;101910.00;;;;10334774;28;20285;-80
2021/10/13 02:29:42;;;;;;;15.73;11.07;;;;;6.00;101915.00;;;;10335695;28;20254;-80
2021/10/13 02:34:44;;;;;;;17.67;10.07;;;;;6.00;101923.00;;;;10332893;28;20234;-80
2021/10/13 02:39:45;;;;;;;17.17;10.47;;;;;5.90;101924.00;;;;10325777;28;20670;-80
2021/10/13 02:44:47;;;;;;;21.73;10.43;;;;;5.90;101933.00;;;;10360521;28;20223;-81
2021/10/13 02:50:19;;;;;;;19.50;10.10;;;;;6.00;101919.00;;;;10333664;28;20207;-80
2021/10/13 02:55:36;;;;;;;22.70;11.00;;;;;6.10;101937.00;;;;10329309;28;20235;-80
2021/10/13 03:00:39;;;;;;;18.57;12.33;;;;;6.30;101936.00;;;;10331349;28;20202;-80
2021/10/13 03:05:41;;;;;;;17.53;12.23;;;;;6.40;101943.00;;;;10363613;28;20247;-81
2021/10/13 03:10:46;;;;;;;26.23;12.97;;;;;6.40;101941.00;;;;10348766;28;20261;-81
2021/10/13 03:15:50;;;;;;;21.10;12.53;;;;;6.40;101945.00;;;;10332415;28;20343;-80
2021/10/13 03:20:52;;;;;;;21.30;12.53;;;;;6.30;101948.00;;;;10315333;28;20199;-80
2021/10/13 03:25:53;;;;;;;21.17;12.67;;;;;6.40;101942.00;;;;10349381;28;20917;-81
2021/10/13 03:30:56;;;;;;;19.63;12.67;;;;;6.40;101938.00;;;;10303692;28;20682;-80
2021/10/13 03:35:59;;;;;;;19.90;12.67;;;;;6.50;101949.00;;;;10332097;28;20207;-80
2021/10/13 03:41:00;;;;;;;21.87;12.13;;;;;6.60;101956.00;;;;10289798;28;20913;-80
2021/10/13 03:46:01;;;;;;;19.97;12.83;;;;;6.80;101960.00;;;;10337671;28;20250;-80
2021/10/13 03:51:03;;;;;;;16.47;12.27;;;;;6.80;101960.00;;;;10340909;28;20203;-80
2021/10/13 03:56:04;;;;;;;21.37;12.37;;;;;6.80;101964.00;;;;10337530;28;20223;-80
2021/10/13 04:01:05;;;;;;;20.27;11.90;;;;;6.80;101962.00;;;;10290938;28;20208;-80
2021/10/13 04:06:08;;;;;;;22.33;11.70;;;;;6.90;101965.00;;;;10294027;28;20562;-81
2021/10/13 04:11:09;;;;;;;22.93;11.70;;;;;7.00;101972.00;;;;10309730;28;20200;-80
2021/10/13 04:16:11;;;;;;;24.83;12.43;;;;;7.00;101962.00;;;;10324339;28;20211;-81
2021/10/13 04:21:12;;;;;;;22.73;11.50;;;;;7.10;101966.00;;;;10316397;28;20203;-80
2021/10/13 04:26:13;;;;;;;25.30;12.80;;;;;7.10;101974.00;;;;10316332;28;20223;-80
2021/10/13 04:31:15;;;;;;;22.97;12.30;;;;;7.20;101975.00;;;;10308484;28;20619;-79
2021/10/13 04:36:16;;;;;;;25.23;13.57;;;;;7.30;101970.00;;;;10339058;28;20200;-82
2021/10/13 04:41:18;;;;;;;21.80;12.30;;;;;7.40;101973.00;;;;10345764;28;20195;-81
2021/10/13 04:46:19;;;;;;;21.37;12.50;;;;;7.40;101967.00;;;;10341088;28;20223;-81
2021/10/13 04:51:20;;;;;;;21.13;12.33;;;;;7.50;101957.00;;;;10346736;28;20215;-81
2021/10/13 04:56:22;;;;;;;19.53;12.40;;;;;7.50;101980.00;;;;10285131;28;20345;-80
2021/10/13 05:01:23;;;;;;;22.73;11.80;;;;;7.60;101976.00;;;;10322640;28;20203;-78
2021/10/13 05:06:24;;;;;;;21.27;11.53;;;;;7.60;101968.00;;;;10312619;28;20223;-80
2021/10/13 05:11:25;;;;;;;20.20;12.03;;;;;7.60;101973.00;;;;10314639;28;20199;-80
2021/10/13 05:16:27;;;;;;;22.03;11.63;;;;;7.60;101984.00;;;;10331252;28;20253;-80
2021/10/13 05:21:35;;;;;;;23.73;12.90;;;;;7.60;101986.00;;;;10311635;28;20207;-81
2021/10/13 05:26:36;;;;;;;21.43;12.90;;;;;7.70;101991.00;;;;10305721;28;20227;-81
2021/10/13 05:31:37;;;;;;;22.90;12.93;;;;;7.70;101994.00;;;;10330250;28;20210;-81
2021/10/13 05:36:38;;;;;;;25.47;11.90;;;;;7.70;101992.00;;;;10314754;28;20203;-80
2021/10/13 05:41:40;;;;;;;22.27;12.27;;;;;7.80;102012.00;;;;10299626;28;20207;-81
2021/10/13 05:46:41;;;;;;;22.37;11.63;;;;;7.80;102002.00;;;;10331590;28;20330;-81
2021/10/13 05:51:43;;;;;;;26.50;12.90;;;;;7.90;102008.00;;;;10300460;28;20207;-80
2021/10/13 05:56:44;;;;;;;26.13;13.17;;;;;7.90;101998.00;;;;10334682;28;20227;-80
2021/10/13 06:01:46;;;;;;;25.40;12.57;;;;;7.90;102012.00;;;;10319262;28;20207;-80
2021/10/13 06:06:47;;;;;;;21.13;12.37;;;;;7.90;102012.00;;;;10295185;28;1110666;-81
2021/10/13 06:11:49;;;;;;;24.97;11.90;;;;;8.00;102031.00;;;;10279192;28;20283;-81
2021/10/13 06:16:51;;;;;;;19.50;11.93;;;;;8.00;102039.00;;;;10284588;28;20205;-80
2021/10/13 06:21:53;;;;;;;29.80;11.57;;;;;8.00;102050.00;;;;10263183;28;20652;-80
2021/10/13 06:26:56;;;;;;;22.80;11.77;;;;;8.10;102055.00;;;;10303036;28;20212;-79
2021/10/13 06:31:57;;;;;;;18.10;12.93;;;;;8.10;102057.00;;;;10291062;28;20203;-77
2021/10/13 06:37:00;;;;;;;23.90;12.97;;;;;8.20;102067.00;;;;10301877;28;20200;-79
2021/10/13 06:42:05;;;;;;;23.40;12.93;;;;;8.30;102061.00;;;;10294659;28;20206;-79
2021/10/13 06:47:06;;;;;;;27.03;12.90;;;;;8.40;102059.00;;;;10285794;28;20212;-77
2021/10/13 06:52:08;;;;;;;22.03;12.50;;;;;8.60;102072.00;;;;10303488;28;20208;-77
2021/10/13 06:57:10;;;;;;;21.33;11.67;;;;;8.70;102073.00;;;;10308006;28;20226;-77
2021/10/13 07:02:12;;;;;;;26.30;13.33;;;;;8.80;102077.00;;;;10304855;28;20202;-79
2021/10/13 07:07:14;;;;;;;28.83;12.13;;;;;8.90;102071.00;;;;10292984;28;20246;-77
2021/10/13 07:12:16;;;;;;;22.40;12.03;;;;;8.90;102082.00;;;;10300175;28;20211;-77
2021/10/13 07:17:18;;;;;;;28.90;12.93;;;;;9.10;102086.00;;;;10300568;28;20188;-77
2021/10/13 07:22:20;;;;;;;24.27;12.30;;;;;9.20;102100.00;;;;10315789;28;20275;-77
2021/10/13 07:27:22;;;;;;;25.43;12.57;;;;;9.40;102102.00;;;;10259553;28;20213;-77
2021/10/13 07:32:25;;;;;;;17.63;12.53;;;;;9.60;102106.00;;;;10311445;28;20208;-77
2021/10/13 07:37:49;;;;;;;21.57;12.17;;;;;9.70;102111.00;;;;10299458;28;20222;-79
2021/10/13 07:42:52;;;;;;;28.27;11.90;;;;;9.80;102113.00;;;;10299447;28;20311;-80
2021/10/13 07:47:54;;;;;;;22.30;11.60;;;;;9.90;102111.00;;;;10299673;28;20243;-78
2021/10/13 07:52:56;;;;;;;20.47;11.73;;;;;10.20;102107.00;;;;10297878;28;20924;-78
2021/10/13 07:57:58;;;;;;;22.17;12.17;;;;;10.30;102113.00;;;;10277281;28;20244;-77
2021/10/13 08:02:59;;;;;;;22.50;11.67;;;;;10.50;102116.00;;;;10298477;28;20196;-78
2021/10/13 08:08:04;;;;;;;19.13;10.87;;;;;10.80;102120.00;;;;10276053;28;20213;-77
2021/10/13 08:13:05;;;;;;;26.57;10.83;;;;;10.90;102113.00;;;;10263828;28;20603;-78
2021/10/13 08:18:07;;;;;;;19.37;10.60;;;;;11.10;102122.00;;;;10268992;28;20240;-77
2021/10/13 08:23:09;;;;;;;17.03;9.93;;;;;11.30;102139.00;;;;10313624;28;20250;-77
2021/10/13 08:28:12;;;;;;;17.00;9.80;;;;;11.50;102133.00;;;;10297817;28;21009;-78
2021/10/13 08:33:14;;;;;;;19.00;9.97;;;;;11.70;102150.00;;;;10297334;28;20678;-77
2021/10/13 08:38:16;;;;;;;20.43;9.43;;;;;11.80;102152.00;;;;10312155;28;20259;-78
2021/10/13 08:43:22;;;;;;;15.30;8.67;;;;;12.00;102154.00;;;;10291684;28;21066;-77
2021/10/13 08:48:24;;;;;;;14.67;8.73;;;;;11.90;102160.00;;;;10281058;28;20645;-77
2021/10/13 08:53:26;;;;;;;16.10;9.30;;;;;11.90;102152.00;;;;10278468;28;20671;-77
2021/10/13 08:58:28;;;;;;;15.37;8.60;;;;;12.30;102148.00;;;;10296669;28;20219;-78
2021/10/13 09:03:51;;;;;;;16.87;8.87;;;;;12.70;102153.00;;;;10296944;28;20192;-77
2021/10/13 09:09:07;;;;;;;13.00;7.30;;;;;13.10;102152.00;;;;10256969;28;20228;-77
2021/10/13 09:14:22;;;;;;;11.17;7.03;;;;;13.30;102147.00;;;;10286451;28;20734;-77
2021/10/13 09:19:58;;;;;;;14.27;5.53;;;;;13.30;102156.00;;;;10289617;28;20208;-77
2021/10/13 09:25:00;;;;;;;10.73;5.40;;;;;13.40;102168.00;;;;10255683;28;20224;-78
2021/10/13 09:30:07;;;;;;;8.30;5.03;;;;;13.80;102168.00;;;;10278238;28;20196;-79
2021/10/13 09:35:09;;;;;;;6.93;4.17;;;;;13.80;102181.00;;;;10296499;28;20192;-77
2021/10/13 09:40:11;;;;;;;7.57;3.37;;;;;13.60;102183.00;;;;10312259;28;20219;-78
2021/10/13 09:45:13;;;;;;;8.07;3.47;;;;;13.60;102182.00;;;;10292297;28;20303;-78
2021/10/13 09:50:16;;;;;;;5.13;3.23;;;;;13.90;102179.00;;;;10288019;28;20197;-78
2021/10/13 09:55:17;;;;;;;6.87;3.13;;;;;14.10;102186.00;;;;10310519;28;21030;-78
2021/10/13 10:00:23;;;;;;;6.23;2.27;;;;;14.00;102191.00;;;;10300533;28;20204;-79
2021/10/13 10:05:33;;;;;;;7.43;2.17;;;;;13.60;102187.00;;;;10278533;28;20219;-79
2021/10/13 10:10:37;;;;;;;8.03;2.40;;;;;13.30;102187.00;;;;10302271;28;20204;-78
2021/10/13 10:15:47;;;;;;;8.97;2.43;;;;;13.40;102188.00;;;;10276004;28;20193;-81
2021/10/13 10:20:51;;;;;;;4.83;1.83;;;;;13.60;102191.00;;;;10285731;28;20214;-78
2021/10/13 10:25:55;;;;;;;2.77;1.70;;;;;13.40;102200.00;;;;10303196;28;20231;-78
2021/10/13 10:31:28;;;;;;;5.97;1.60;;;;;13.00;102204.00;;;;10319320;28;20231;-78
2021/10/13 10:36:50;;;;;;;7.03;2.37;;;;;12.80;102209.00;;;;10286221;28;20203;-78
2021/10/13 10:41:54;;;;;;;2.63;2.10;;;;;13.10;102195.00;;;;10314909;28;20258;-79
2021/10/13 10:47:08;;;;;;;4.57;2.00;;;;;13.20;102198.00;;;;10286122;28;20216;-81
2021/10/13 10:52:10;;;;;;;3.87;2.07;;;;;13.00;102198.00;;;;10287621;28;20199;-81
2021/10/13 10:57:45;;;;;;;5.60;1.97;;;;;12.80;102191.00;;;;10288270;28;20221;-81
2021/10/13 11:02:48;;;;;;;7.80;2.03;;;;;12.90;102186.00;;;;10295438;28;20208;-81
2021/10/13 11:07:51;;;;;;;7.70;2.20;;;;;13.40;102186.00;;;;10310931;28;20226;-81
2021/10/13 11:12:56;;;;;;;7.87;2.77;;;;;13.60;102193.00;;;;10256524;28;20197;-81
2021/10/13 11:18:16;;;;;;;5.67;2.70;;;;;14.10;102195.00;;;;10282936;28;20192;-81
2021/10/13 11:23:18;;;;;;;6.90;2.50;;;;;14.30;102198.00;;;;10291360;28;20197;-81
2021/10/13 11:28:23;;;;;;;5.43;2.33;;;;;14.30;102193.00;;;;10302059;28;20680;-81
2021/10/13 11:33:24;;;;;;;8.90;2.37;;;;;14.90;102189.00;;;;10286230;28;20258;-81
2021/10/13 11:38:35;;;;;;;4.43;1.65;;;;;15.70;102195.00;;;;10300659;28;20196;-81
2021/10/13 11:43:37;;;;;;;3.70;1.43;;;;;15.40;102185.00;;;;10281112;28;20228;-79
2021/10/13 11:48:40;;;;;;;5.80;1.43;;;;;15.00;102197.00;;;;10279328;28;20747;-78
2021/10/13 11:53:48;;;;;;;5.40;1.20;;;;;15.00;102179.00;;;;10256599;28;20224;-78
2021/10/13 11:58:50;;;;;;;4.88;1.48;;;;;14.90;102186.00;;;;10285451;28;20250;-81
2021/10/13 12:03:52;;;;;;;3.63;1.63;;;;;15.20;102180.00;;;;10306722;28;20196;-80
2021/10/13 12:08:54;;;;;;;5.38;2.05;;;;;15.40;102190.00;;;;10264362;28;20271;-77
2021/10/13 12:14:09;;;;;;;8.88;2.70;;;;;15.40;102182.00;;;;10299161;28;20723;-80
2021/10/13 12:19:41;;;;;;;8.82;3.13;;;;;15.80;102172.00;;;;10327520;28;20238;-78
2021/10/13 12:24:43;;;;;;;7.90;4.10;;;;;15.60;102182.00;;;;10297613;28;20196;-80
2021/10/13 12:29:45;;;;;;;8.60;3.38;;;;;15.30;102185.00;;;;10322585;28;20702;-81
2021/10/13 12:34:47;;;;;;;8.57;3.50;;;;;15.20;102182.00;;;;10290357;28;20200;-80
2021/10/13 12:39:49;;;;;;;6.50;3.20;;;;;15.50;102184.00;;;;10306106;28;20196;-81
2021/10/13 12:44:58;;;;;;;6.57;2.83;;;;;16.00;102184.00;;;;10299698;28;20715;-80
2021/10/13 12:50:11;;;;;;;5.50;2.47;;;;;15.90;102176.00;;;;10308401;28;20188;-80
2021/10/13 12:55:13;;;;;;;5.70;2.38;;;;;16.90;102173.00;;;;10297836;28;20212;-80
2021/10/13 13:00:15;;;;;;;4.13;1.90;;;;;17.10;102181.00;;;;10316032;28;20195;-81
2021/10/13 13:05:27;;;;;;;4.63;2.10;;;;;16.10;102168.00;;;;10335967;28;20242;-81
2021/10/13 13:10:29;;;;;;;5.88;2.70;;;;;15.40;102159.00;;;;10298481;28;20663;-80
2021/10/13 13:15:32;;;;;;;8.27;3.10;;;;;15.20;102163.00;;;;10295811;28;20207;-81
2021/10/13 13:20:34;;;;;;;5.38;2.83;;;;;15.30;102154.00;;;;10314241;28;20196;-81
2021/10/13 13:25:37;;;;;;;9.90;3.40;;;;;15.10;102179.00;;;;10279174;28;20197;-80
2021/10/13 13:30:41;;;;;;;7.15;3.28;;;;;15.00;102179.00;;;;10309835;28;20207;-80
2021/10/13 13:35:43;;;;;;;5.82;2.50;;;;;15.30;102178.00;;;;10340737;28;20198;-81
2021/10/13 13:40:45;;;;;;;9.23;3.10;;;;;15.50;102173.00;;;;10291110;28;20299;-80
2021/10/13 13:45:48;;;;;;;7.67;3.03;;;;;15.80;102165.00;;;;10289365;28;20239;-80
2021/10/13 13:50:50;;;;;;;7.22;2.67;;;;;15.70;102150.00;;;;10321465;28;20200;-80
2021/10/13 13:55:52;;;;;;;5.82;2.75;;;;;15.70;102147.00;;;;10319883;28;20691;-80
2021/10/13 14:00:54;;;;;;;8.77;3.00;;;;;15.80;102144.00;;;;10301507;28;20196;-81
2021/10/13 14:05:56;;;;;;;6.10;2.92;;;;;15.60;102155.00;;;;10311089;28;20228;-80
2021/10/13 14:10:58;;;;;;;7.53;2.67;;;;;15.20;102151.00;;;;10298974;28;20204;-80
2021/10/13 14:16:01;;;;;;;5.80;2.45;;;;;14.90;102150.00;;;;10304333;28;20246;-80
2021/10/13 14:21:03;;;;;;;7.07;3.00;;;;;14.70;102149.00;;;;10288865;28;20607;-81
2021/10/13 14:26:05;;;;;;;5.15;3.13;;;;;14.50;102150.00;;;;10303814;28;20736;-80
2021/10/13 14:31:08;;;;;;;9.10;3.10;;;;;14.30;102152.00;;;;10287750;28;20255;-81
2021/10/13 14:36:20;;;;;;;7.10;3.37;;;;;14.00;102153.00;;;;10268422;28;20193;-80
2021/10/13 14:41:21;;;;;;;9.83;3.47;;;;;14.00;102145.00;;;;10299602;28;20247;-81
2021/10/13 14:46:23;;;;;;;6.07;2.90;;;;;14.10;102149.00;;;;10290433;28;20205;-81
2021/10/13 14:51:25;;;;;;;5.80;2.20;;;;;14.20;102149.00;;;;10292249;28;20205;-80
2021/10/13 14:56:27;;;;;;;5.20;2.03;;;;;14.30;102146.00;;;;10296739;28;20208;-80
2021/10/13 15:01:31;;;;;;;5.97;1.60;;;;;14.30;102153.00;;;;10291995;28;20231;-80
2021/10/13 15:06:33;;;;;;;4.57;1.70;;;;;14.40;102158.00;;;;10313110;28;20561;-80
2021/10/13 15:11:36;;;;;;;6.23;1.63;;;;;14.50;102153.00;;;;10297848;28;20197;-80
2021/10/13 15:16:38;;;;;;;5.80;1.50;;;;;14.50;102152.00;;;;10301269;28;20196;-80
2021/10/13 15:21:41;;;;;;;6.27;1.67;;;;;14.50;102148.00;;;;10301424;28;20196;-80
2021/10/13 15:26:43;;;;;;;6.47;1.83;;;;;14.40;102145.00;;;;10298605;28;20208;-79
2021/10/13 15:31:47;;;;;;;8.00;2.03;;;;;14.40;102153.00;;;;10278651;28;20232;-79
2021/10/13 15:36:51;;;;;;;2.83;1.63;;;;;14.30;102162.00;;;;10271073;28;20193;-80
2021/10/13 15:41:55;;;;;;;5.67;1.70;;;;;14.20;102150.00;;;;10300331;28;20240;-80
2021/10/13 15:47:14;;;;;;;4.07;1.43;;;;;14.00;102150.00;;;;10297279;28;20663;-79
2021/10/13 15:52:16;;;;;;;2.67;1.33;;;;;13.70;102155.00;;;;10295478;28;20181;-78
2021/10/13 15:57:18;;;;;;;6.43;1.70;;;;;13.50;102161.00;;;;10300544;28;20642;-79
2021/10/13 16:02:22;;;;;;;3.20;1.50;;;;;13.30;102163.00;;;;10311724;28;20283;-79
2021/10/13 16:07:24;;;;;;;4.50;1.60;;;;;13.10;102166.00;;;;10313863;28;20753;-79
2021/10/13 16:12:30;;;;;;;7.87;1.70;;;;;12.90;102180.00;;;;10273362;28;20219;-79
2021/10/13 16:17:31;;;;;;;3.70;1.10;;;;;12.80;102175.00;;;;10275308;28;20196;-79
2021/10/13 16:22:35;;;;;;;3.63;1.50;;;;;12.60;102175.00;;;;10314102;28;20200;-79
2021/10/13 16:27:37;;;;;;;10.67;2.23;;;;;12.40;102173.00;;;;10297590;28;20236;-79
2021/10/13 16:32:39;;;;;;;5.93;2.47;;;;;12.30;102174.00;;;;10282244;28;20185;-80
2021/10/13 16:37:41;;;;;;;7.63;2.77;;;;;12.30;102177.00;;;;10297364;28;20204;-80
2021/10/13 16:42:43;;;;;;;7.47;2.60;;;;;12.20;102179.00;;;;10299722;28;20199;-79
2021/10/13 16:47:46;;;;;;;8.80;3.17;;;;;12.10;102188.00;;;;10265479;28;20799;-80
2021/10/13 16:52:48;;;;;;;6.80;2.77;;;;;12.00;102186.00;;;;10281297;28;20664;-79
2021/10/13 16:57:49;;;;;;;3.73;2.50;;;;;11.90;102180.00;;;;10280353;28;20212;-79
2021/10/13 17:02:51;;;;;;;13.33;4.77;;;;;11.70;102178.00;;;;10297045;28;20212;-79
2021/10/13 17:07:53;;;;;;;9.17;4.43;;;;;11.70;102182.00;;;;10279369;28;20243;-79
2021/10/13 17:12:55;;;;;;;8.10;4.40;;;;;11.50;102184.00;;;;10314006;28;20250;-80
2021/10/13 17:17:59;;;;;;;8.50;3.93;;;;;11.50;102188.00;;;;10312904;28;20188;-81
2021/10/13 17:23:04;;;;;;;12.03;4.30;;;;;11.40;102187.00;;;;10280473;28;20200;-80
2021/10/13 17:28:06;;;;;;;10.73;5.07;;;;;11.30;102188.00;;;;10280889;28;20215;-80
2021/10/13 17:33:08;;;;;;;10.97;3.10;;;;;11.20;102190.00;;;;10293902;28;20200;-80
2021/10/13 17:38:11;;;;;;;6.03;3.17;;;;;11.10;102191.00;;;;10287310;28;20572;-80
2021/10/13 17:43:13;;;;;;;6.07;3.40;;;;;11.00;102196.00;;;;10263767;28;20209;-80
2021/10/13 17:48:16;;;;;;;7.40;3.30;;;;;10.90;102200.00;;;;10266421;28;20214;-80
2021/10/13 17:53:23;;;;;;;8.37;3.43;;;;;10.70;102198.00;;;;10263281;28;20201;-80
2021/10/13 17:58:25;;;;;;;10.47;3.40;;;;;10.60;102194.00;;;;10287740;28;20283;-80
2021/10/13 18:03:26;;;;;;;5.33;2.70;;;;;10.50;102205.00;;;;10274979;28;20204;-80
2021/10/13 18:08:29;;;;;;;8.60;3.10;;;;;10.40;102209.00;;;;10295513;28;20754;-80
2021/10/13 18:13:31;;;;;;;6.17;3.20;;;;;10.20;102203.00;;;;10279625;28;20262;-79
2021/10/13 18:18:33;;;;;;;6.97;4.20;;;;;10.00;102201.00;;;;10298947;28;20197;-80
2021/10/13 18:23:35;;;;;;;8.87;4.33;;;;;9.90;102202.00;;;;10302975;28;20770;-79
2021/10/13 18:28:38;;;;;;;14.13;5.63;;;;;9.80;102204.00;;;;10318080;28;20220;-80
2021/10/13 18:33:40;;;;;;;8.63;4.80;;;;;9.70;102211.00;;;;10286709;28;20251;-80
2021/10/13 18:38:43;;;;;;;11.07;4.50;;;;;9.60;102207.00;;;;10293822;28;20228;-79
2021/10/13 18:43:45;;;;;;;6.80;4.53;;;;;9.50;102215.00;;;;10303217;28;20229;-80
2021/10/13 18:48:47;;;;;;;5.93;4.63;;;;;9.50;102217.00;;;;10301747;28;20212;-80
2021/10/13 18:53:49;;;;;;;11.53;4.80;;;;;9.50;102212.00;;;;10285190;28;20208;-80
2021/10/13 18:58:50;;;;;;;11.57;5.43;;;;;9.60;102221.00;;;;10287231;28;20196;-80
2021/10/13 19:03:52;;;;;;;10.90;5.67;;;;;9.60;102215.00;;;;10277212;28;20196;-80
2021/10/13 19:08:54;;;;;;;14.17;8.50;;;;;9.50;102213.00;;;;10319353;28;20262;-80
2021/10/13 19:13:56;;;;;;;47.20;40.07;;;;;9.40;102200.00;;;;10284617;28;20197;-79
2021/10/13 19:18:59;;;;;;;20.67;13.03;;;;;9.30;102198.00;;;;10284937;28;20207;-80
2021/10/13 19:24:06;;;;;;;15.97;8.87;;;;;9.30;102210.00;;;;10300890;28;20207;-80
2021/10/13 19:29:07;;;;;;;18.07;10.13;;;;;9.20;102193.00;;;;10290755;28;20262;-80
2021/10/13 19:34:09;;;;;;;14.80;6.20;;;;;9.10;102193.00;;;;10309223;28;20682;-80
2021/10/13 19:39:12;;;;;;;29.67;20.80;;;;;9.10;102194.00;;;;10266348;28;20702;-80
2021/10/13 19:44:13;;;;;;;17.93;10.13;;;;;9.10;102204.00;;;;10292515;28;20727;-80
2021/10/13 19:49:15;;;;;;;11.10;7.10;;;;;9.20;102210.00;;;;10299542;28;20239;-80
2021/10/13 19:54:17;;;;;;;12.23;8.33;;;;;9.30;102209.00;;;;10316337;28;20220;-80
2021/10/13 19:59:19;;;;;;;14.90;7.47;;;;;9.40;102209.00;;;;10267800;28;20201;-80
2021/10/13 20:04:22;;;;;;;8.57;6.83;;;;;9.50;102216.00;;;;10315089;28;20668;-80
2021/10/13 20:09:24;;;;;;;12.97;6.83;;;;;9.60;102214.00;;;;10298430;28;20212;-80
2021/10/13 20:14:26;;;;;;;14.17;6.17;;;;;9.70;102215.00;;;;10282810;28;20208;-80
2021/10/13 20:19:28;;;;;;;7.97;6.60;;;;;9.80;102217.00;;;;10251643;28;20205;-80
2021/10/13 20:24:30;;;;;;;9.63;5.83;;;;;9.90;102218.00;;;;10242092;28;20251;-80
2021/10/13 20:29:33;;;;;;;12.40;5.90;;;;;9.90;102216.00;;;;10287529;28;20247;-80
2021/10/13 20:34:35;;;;;;;15.27;6.27;;;;;9.80;102222.00;;;;10293093;28;20188;-80
2021/10/13 20:39:39;;;;;;;14.13;6.90;;;;;9.80;102217.00;;;;10321799;28;20823;-80
2021/10/13 20:44:41;;;;;;;19.67;7.63;;;;;9.80;102217.00;;;;10300489;28;20192;-80
2021/10/13 20:49:43;;;;;;;14.30;7.17;;;;;9.80;102220.00;;;;10303765;28;20208;-80
2021/10/13 20:54:45;;;;;;;11.13;6.20;;;;;9.80;102228.00;;;;10308252;28;20215;-80
2021/10/13 20:59:47;;;;;;;10.97;6.33;;;;;9.90;102221.00;;;;10282538;28;20192;-80
2021/10/13 21:04:49;;;;;;;10.03;6.03;;;;;9.90;102224.00;;;;10278516;28;20217;-80
2021/10/13 21:09:51;;;;;;;11.63;6.57;;;;;9.90;102229.00;;;;10276911;28;20208;-80
2021/10/13 21:14:53;;;;;;;9.67;5.93;;;;;9.80;102235.00;;;;10300085;28;20227;-80
2021/10/13 21:19:55;;;;;;;9.83;5.97;;;;;9.80;102244.00;;;;10300156;28;20279;-80
2021/10/13 21:24:57;;;;;;;11.63;6.23;;;;;9.70;102236.00;;;;10269022;28;20201;-80
2021/10/13 21:29:59;;;;;;;13.63;6.00;;;;;9.70;102242.00;;;;10315477;28;20215;-79
2021/10/13 21:35:01;;;;;;;11.40;5.80;;;;;9.80;102244.00;;;;10315486;28;20207;-80
2021/10/13 21:40:05;;;;;;;9.97;5.20;;;;;9.80;102239.00;;;;10284218;28;20188;-80
2021/10/13 21:45:07;;;;;;;9.53;5.10;;;;;9.90;102240.00;;;;10299535;28;20192;-80
2021/10/13 21:50:10;;;;;;;11.57;6.07;;;;;9.90;102235.00;;;;10299891;28;20215;-80
2021/10/13 21:55:12;;;;;;;15.00;5.70;;;;;9.90;102236.00;;;;10282664;28;20656;-80
2021/10/13 22:00:16;;;;;;;11.70;5.57;;;;;9.90;102244.00;;;;10278671;28;20216;-80
2021/10/13 22:05:18;;;;;;;14.30;6.13;;;;;9.90;102236.00;;;;10310822;28;20195;-79
2021/10/13 22:10:21;;;;;;;11.50;6.10;;;;;9.90;102234.00;;;;10321430;28;20209;-80
2021/10/13 22:15:23;;;;;;;15.53;6.00;;;;;9.90;102233.00;;;;10306085;28;20710;-80
2021/10/13 22:20:25;;;;;;;9.33;5.57;;;;;10.00;102233.00;;;;10298438;28;20193;-80
2021/10/13 22:25:27;;;;;;;10.97;5.17;;;;;10.10;102231.00;;;;10289556;28;20201;-80
2021/10/13 22:30:29;;;;;;;15.23;4.83;;;;;10.20;102226.00;;;;10305810;28;20211;-80
2021/10/13 22:35:31;;;;;;;16.60;5.07;;;;;10.20;102232.00;;;;10284486;28;20204;-80
2021/10/13 22:40:34;;;;;;;17.57;5.27;;;;;10.30;102236.00;;;;10250903;28;20197;-79
2021/10/13 22:45:36;;;;;;;10.97;5.90;;;;;10.30;102239.00;;;;10304268;28;20200;-80
2021/10/13 22:50:39;;;;;;;8.90;4.87;;;;;10.30;102240.00;;;;10288820;28;20239;-80
2021/10/13 22:55:42;;;;;;;10.00;5.10;;;;;10.40;102233.00;;;;10287332;28;20224;-80
2021/10/13 23:00:44;;;;;;;14.00;4.90;;;;;10.40;102237.00;;;;10304969;28;20197;-80
2021/10/13 23:05:46;;;;;;;10.77;5.67;;;;;10.40;102233.00;;;;10313020;28;20203;-80
2021/10/13 23:10:47;;;;;;;9.70;5.50;;;;;10.40;102229.00;;;;10295006;28;20208;-80
2021/10/13 23:15:49;;;;;;;11.03;4.90;;;;;10.40;102226.00;;;;10305024;28;20671;-80
2021/10/13 23:20:51;;;;;;;12.77;5.53;;;;;10.40;102233.00;;;;10320637;28;20384;-80
2021/10/13 23:25:53;;;;;;;13.53;5.70;;;;;10.40;102228.00;;;;10288548;28;20204;-80
2021/10/13 23:30:55;;;;;;;16.50;5.37;;;;;10.40;102232.00;;;;10274061;28;20231;-80
2021/10/13 23:35:57;;;;;;;9.63;5.47;;;;;10.40;102227.00;;;;10288402;28;20223;-80
2021/10/13 23:40:59;;;;;;;10.77;6.10;;;;;10.40;102219.00;;;;10288320;28;20184;-80
2021/10/13 23:46:01;;;;;;;14.87;5.30;;;;;10.40;102220.00;;;;10286995;28;20192;-80
2021/10/13 23:51:04;;;;;;;9.53;5.30;;;;;10.50;102221.00;;;;10286682;28;20204;-81
2021/10/13 23:56:05;;;;;;;12.47;5.50;;;;;10.50;102215.00;;;;10301055;28;20220;-80
